Time;durP1;ratioP1;P1;durP2;ratioP2;P2;SDS_P1;SDS_P2;PMS_P1;PMS_P2;Temp;Humidity;BMP_temperature;BMP_pressure;BME280_temperature;BME280_humidity;BME280_pressure;Samples;Min_cycle;Max_cycle;Signal;HPM_P1;HPM_P2
2020/12/28 00:01:01;;;;;;;45.50;8.57;;;26.60;79.80;;;;;;4967949;28;20614;-70
2020/12/28 00:03:28;;;;;;;37.37;8.37;;;26.30;80.10;;;;;;4966017;28;20645;-71
2020/12/28 00:05:56;;;;;;;40.93;8.23;;;26.20;81.10;;;;;;4964821;28;20661;-70
2020/12/28 00:08:23;;;;;;;38.80;8.70;;;26.20;81.40;;;;;;4964157;28;20221;-71
2020/12/28 00:10:51;;;;;;;42.57;9.83;;;26.20;81.40;;;;;;4967177;28;20178;-70
2020/12/28 00:13:18;;;;;;;43.17;8.90;;;26.50;81.10;;;;;;4969911;28;20190;-70
2020/12/28 00:15:45;;;;;;;43.83;9.37;;;26.90;79.80;;;;;;4971181;28;20205;-72
2020/12/28 00:18:13;;;;;;;40.57;8.20;;;26.70;79.40;;;;;;4969326;28;20186;-70
2020/12/28 00:20:40;;;;;;;45.70;9.60;;;26.60;80.20;;;;;;4959699;28;20187;-70
2020/12/28 00:23:07;;;;;;;40.87;9.30;;;26.60;80.00;;;;;;4965682;28;20187;-70
2020/12/28 00:25:37;;;;;;;48.53;9.87;;;26.70;80.00;;;;;;4973819;28;20237;-71
2020/12/28 00:28:04;;;;;;;50.10;9.10;;;26.40;80.30;;;;;;4961704;28;20202;-71
2020/12/28 00:30:32;;;;;;;42.33;8.60;;;26.10;81.10;;;;;;4967829;28;20269;-71
2020/12/28 00:32:59;;;;;;;44.43;8.50;;;26.10;81.40;;;;;;4970241;28;20206;-70
2020/12/28 00:35:26;;;;;;;57.53;9.50;;;26.10;81.20;;;;;;4966284;28;20207;-71
2020/12/28 00:37:54;;;;;;;51.87;8.53;;;26.20;81.10;;;;;;4963130;28;20182;-70
2020/12/28 00:40:21;;;;;;;47.43;9.07;;;26.30;80.70;;;;;;4969253;28;20265;-70
2020/12/28 00:42:48;;;;;;;50.27;8.23;;;26.10;80.40;;;;;;4964851;28;20187;-71
2020/12/28 00:45:16;;;;;;;42.90;9.03;;;26.10;81.70;;;;;;4971696;28;20190;-70
2020/12/28 00:47:43;;;;;;;40.90;7.33;;;26.60;80.30;;;;;;4974209;28;20289;-71
2020/12/28 00:50:10;;;;;;;45.20;7.93;;;26.90;79.10;;;;;;4962844;28;20601;-70
2020/12/28 00:52:38;;;;;;;35.97;7.83;;;27.00;77.80;;;;;;4956505;28;20712;-70
2020/12/28 00:55:06;;;;;;;28.13;6.67;;;26.90;76.50;;;;;;4974390;28;20187;-69
2020/12/28 00:57:34;;;;;;;35.20;7.73;;;26.90;77.30;;;;;;4957110;28;20183;-70
2020/12/28 01:00:01;;;;;;;44.03;8.33;;;26.90;77.20;;;;;;4964353;28;20209;-70
2020/12/28 01:02:28;;;;;;;49.83;8.30;;;26.40;78.20;;;;;;4964819;28;20223;-70
2020/12/28 01:04:56;;;;;;;47.70;8.03;;;26.00;78.80;;;;;;4957597;28;20197;-71
2020/12/28 01:07:23;;;;;;;40.07;6.80;;;26.00;79.60;;;;;;4965240;28;20185;-69
2020/12/28 01:09:51;;;;;;;40.10;7.93;;;26.20;78.90;;;;;;4963632;28;20182;-70
2020/12/28 01:12:18;;;;;;;42.87;7.27;;;26.00;79.30;;;;;;4956917;28;20183;-72
2020/12/28 01:14:46;;;;;;;34.87;7.17;;;25.90;79.60;;;;;;4965450;28;20195;-70
2020/12/28 01:17:13;;;;;;;42.10;6.53;;;26.00;79.70;;;;;;4968238;28;20280;-70
2020/12/28 01:19:40;;;;;;;36.87;6.87;;;25.90;80.40;;;;;;4961102;28;20195;-69
2020/12/28 01:22:08;;;;;;;39.67;6.77;;;26.10;80.40;;;;;;4964180;28;20229;-70
2020/12/28 01:24:35;;;;;;;53.77;8.43;;;26.20;79.70;;;;;;4963261;28;20245;-70
2020/12/28 01:27:02;;;;;;;47.60;7.63;;;26.30;78.50;;;;;;4965990;28;20206;-70
2020/12/28 01:29:29;;;;;;;29.20;5.93;;;26.30;78.50;;;;;;4963217;28;20549;-71
2020/12/28 01:31:57;;;;;;;36.67;5.60;;;26.50;77.70;;;;;;4971563;28;20191;-70
2020/12/28 01:34:24;;;;;;;22.67;5.77;;;26.70;76.20;;;;;;4974606;28;20178;-70
2020/12/28 01:36:52;;;;;;;39.00;6.50;;;26.30;76.70;;;;;;4972873;28;20183;-70
2020/12/28 01:39:19;;;;;;;29.13;6.10;;;25.90;78.80;;;;;;4974873;28;20174;-70
2020/12/28 01:41:47;;;;;;;34.57;6.63;;;26.30;77.90;;;;;;4974108;28;20214;-70
2020/12/28 01:44:14;;;;;;;28.47;5.50;;;26.70;76.10;;;;;;4974274;28;20221;-71
2020/12/28 01:46:41;;;;;;;28.33;6.53;;;26.80;75.60;;;;;;4973642;28;20206;-71
2020/12/28 01:49:09;;;;;;;28.80;5.60;;;26.60;74.70;;;;;;4974377;28;20198;-70
2020/12/28 01:51:37;;;;;;;31.27;5.87;;;26.70;74.90;;;;;;4974541;28;20174;-71
2020/12/28 01:54:04;;;;;;;28.30;6.40;;;26.90;74.40;;;;;;4974147;28;20633;-71
2020/12/28 01:56:34;;;;;;;31.93;6.50;;;26.80;74.90;;;;;;4974027;28;20182;-72
2020/12/28 01:59:02;;;;;;;29.13;6.50;;;26.70;75.20;;;;;;4972600;28;20180;-71
2020/12/28 02:01:35;;;;;;;34.33;6.60;;;26.30;75.90;;;;;;4974309;28;20563;-71
2020/12/28 02:04:03;;;;;;;32.43;6.80;;;25.90;78.20;;;;;;4974276;28;20174;-71
2020/12/28 02:06:30;;;;;;;32.50;7.00;;;25.80;78.60;;;;;;4974074;28;20233;-71
2020/12/28 02:08:58;;;;;;;33.77;6.83;;;25.70;78.80;;;;;;4973534;28;20182;-70
2020/12/28 02:11:27;;;;;;;34.37;6.23;;;26.10;77.60;;;;;;4974599;28;20241;-70
2020/12/28 02:13:54;;;;;;;38.07;6.83;;;25.80;77.80;;;;;;4974149;28;20183;-70
2020/12/28 02:16:22;;;;;;;44.10;6.40;;;25.90;77.20;;;;;;4974194;28;20597;-70
2020/12/28 02:18:50;;;;;;;42.60;6.90;;;26.00;76.10;;;;;;4974358;28;20298;-69
2020/12/28 02:21:17;;;;;;;39.97;6.27;;;26.10;75.20;;;;;;4974416;28;20735;-69
2020/12/28 02:23:45;;;;;;;33.73;6.60;;;25.80;76.30;;;;;;4972369;28;20198;-71
2020/12/28 02:26:13;;;;;;;38.17;7.67;;;25.70;76.20;;;;;;4966320;28;20218;-70
2020/12/28 02:28:40;;;;;;;40.70;7.50;;;25.50;76.20;;;;;;4971236;28;20190;-71
2020/12/28 02:31:07;;;;;;;37.07;7.23;;;25.20;76.80;;;;;;4962125;28;20182;-71
2020/12/28 02:33:35;;;;;;;34.63;7.20;;;25.00;77.10;;;;;;4968408;28;20184;-71
2020/12/28 02:36:02;;;;;;;35.40;6.00;;;25.10;77.30;;;;;;4971367;28;20650;-70
2020/12/28 02:38:29;;;;;;;37.07;6.73;;;25.20;76.50;;;;;;4971730;28;20664;-70
2020/12/28 02:40:57;;;;;;;42.90;6.83;;;25.50;76.00;;;;;;4976090;28;20214;-71
2020/12/28 02:43:24;;;;;;;34.17;6.40;;;25.10;75.30;;;;;;4970044;28;20187;-71
2020/12/28 02:45:51;;;;;;;24.50;6.33;;;24.80;76.60;;;;;;4968639;28;20187;-71
2020/12/28 02:48:19;;;;;;;39.23;6.80;;;24.60;78.00;;;;;;4972282;28;20659;-71
2020/12/28 02:50:46;;;;;;;40.07;6.90;;;24.60;77.70;;;;;;4970328;28;20198;-71
2020/12/28 02:53:13;;;;;;;40.00;7.77;;;24.70;76.60;;;;;;4962280;28;20654;-70
2020/12/28 02:55:41;;;;;;;39.73;6.63;;;24.60;77.00;;;;;;4971224;28;20644;-71
2020/12/28 02:58:08;;;;;;;40.07;7.37;;;24.30;77.80;;;;;;4973365;28;20660;-70
2020/12/28 03:00:36;;;;;;;38.63;6.13;;;24.00;78.50;;;;;;4969764;28;20241;-71
2020/12/28 03:03:03;;;;;;;40.50;7.67;;;23.90;79.60;;;;;;4965603;28;20222;-70
2020/12/28 03:05:31;;;;;;;42.23;6.77;;;24.00;79.00;;;;;;4969858;28;20183;-71
2020/12/28 03:07:58;;;;;;;35.43;6.47;;;23.90;79.20;;;;;;4970487;28;20198;-70
2020/12/28 03:10:25;;;;;;;39.87;7.23;;;23.70;80.10;;;;;;4970435;28;20265;-70
2020/12/28 03:12:53;;;;;;;35.90;7.17;;;23.70;80.70;;;;;;4969231;28;20547;-70
2020/12/28 03:15:20;;;;;;;30.47;5.50;;;23.70;79.90;;;;;;4972518;28;20190;-69
2020/12/28 03:17:47;;;;;;;38.63;5.87;;;23.70;79.40;;;;;;4968660;28;20712;-70
2020/12/28 03:20:15;;;;;;;40.50;5.87;;;23.90;79.20;;;;;;4971073;28;20269;-70
2020/12/28 03:22:42;;;;;;;34.43;6.07;;;24.00;78.70;;;;;;4966367;28;20223;-70
2020/12/28 03:25:09;;;;;;;43.67;6.90;;;24.30;76.40;;;;;;4970348;28;20190;-69
2020/12/28 03:27:37;;;;;;;36.60;7.23;;;24.10;77.10;;;;;;4967852;28;20664;-71
2020/12/28 03:30:04;;;;;;;39.83;6.67;;;23.90;77.50;;;;;;4967570;28;20182;-70
2020/12/28 03:32:31;;;;;;;48.27;7.03;;;23.90;77.70;;;;;;4966827;28;20183;-70
2020/12/28 03:34:59;;;;;;;31.57;6.70;;;23.80;78.00;;;;;;4966224;28;20748;-71
2020/12/28 03:37:26;;;;;;;46.07;6.47;;;23.70;78.30;;;;;;4969144;28;20584;-70
2020/12/28 03:39:53;;;;;;;46.40;7.13;;;23.70;78.90;;;;;;4969630;28;20175;-70
2020/12/28 03:42:21;;;;;;;29.80;6.00;;;23.70;78.50;;;;;;4966960;28;20215;-70
2020/12/28 03:44:48;;;;;;;33.70;6.07;;;23.60;78.30;;;;;;4968071;28;20687;-70
2020/12/28 03:47:16;;;;;;;34.63;6.17;;;23.30;78.80;;;;;;4968734;28;20185;-70
2020/12/28 03:49:44;;;;;;;39.17;6.63;;;23.10;79.60;;;;;;4971286;28;20186;-71
2020/12/28 03:52:11;;;;;;;30.33;6.60;;;23.20;79.70;;;;;;4969123;28;20175;-70
2020/12/28 03:54:38;;;;;;;33.83;6.80;;;23.10;80.20;;;;;;4966882;28;20745;-70
2020/12/28 03:57:06;;;;;;;37.87;7.30;;;23.00;80.00;;;;;;4970941;28;20183;-70
2020/12/28 03:59:33;;;;;;;38.47;5.67;;;23.00;80.60;;;;;;4969910;28;20195;-70
2020/12/28 04:02:00;;;;;;;36.83;6.33;;;22.90;80.50;;;;;;4966502;28;20211;-70
2020/12/28 04:04:28;;;;;;;33.17;6.77;;;22.90;81.30;;;;;;4964473;28;20225;-70
2020/12/28 04:06:55;;;;;;;43.43;8.23;;;22.70;80.70;;;;;;4971878;28;20190;-70
2020/12/28 04:09:22;;;;;;;32.93;5.93;;;22.60;80.90;;;;;;4967055;28;20210;-71
2020/12/28 04:11:50;;;;;;;32.37;6.40;;;22.50;81.50;;;;;;4971233;28;20190;-70
2020/12/28 04:14:17;;;;;;;30.27;5.93;;;22.60;81.20;;;;;;4965327;28;20187;-70
2020/12/28 04:16:44;;;;;;;35.40;6.87;;;22.50;81.50;;;;;;4965953;28;20218;-70
2020/12/28 04:19:12;;;;;;;34.53;5.53;;;22.50;81.30;;;;;;4973116;28;20187;-70
2020/12/28 04:21:39;;;;;;;33.93;6.53;;;22.30;81.30;;;;;;4971920;28;20292;-70
2020/12/28 04:24:07;;;;;;;40.23;7.37;;;22.30;81.50;;;;;;4972720;28;20174;-70
2020/12/28 04:26:34;;;;;;;32.47;5.77;;;22.40;81.30;;;;;;4965435;28;20186;-71
2020/12/28 04:29:01;;;;;;;40.87;6.63;;;22.50;81.60;;;;;;4973862;28;20202;-70
2020/12/28 04:31:31;;;;;;;31.40;5.03;;;22.60;81.30;;;;;;4970811;28;20282;-70
2020/12/28 04:33:58;;;;;;;34.53;6.70;;;22.60;80.80;;;;;;4973919;28;20174;-70
2020/12/28 04:36:25;;;;;;;44.97;7.63;;;22.50;81.00;;;;;;4974631;28;20209;-70
2020/12/28 04:38:53;;;;;;;37.53;6.23;;;22.40;81.10;;;;;;4970284;28;20543;-73
2020/12/28 04:41:20;;;;;;;31.27;6.33;;;22.40;81.60;;;;;;4965649;28;20215;-72
2020/12/28 04:43:48;;;;;;;27.43;5.97;;;22.50;81.50;;;;;;4974628;28;20189;-72
2020/12/28 04:46:15;;;;;;;27.03;6.70;;;22.70;80.40;;;;;;4973720;28;20334;-73
2020/12/28 04:48:43;;;;;;;36.10;5.67;;;22.60;79.60;;;;;;4973787;28;20241;-71
2020/12/28 04:51:10;;;;;;;28.47;5.93;;;22.60;79.40;;;;;;4978504;28;20166;-71
2020/12/28 04:53:38;;;;;;;34.60;6.27;;;22.40;80.10;;;;;;4977244;28;20234;-72
2020/12/28 04:56:06;;;;;;;30.57;5.33;;;22.10;80.50;;;;;;4972436;28;20254;-71
2020/12/28 04:58:33;;;;;;;25.50;4.83;;;22.00;80.90;;;;;;4973158;28;20724;-71
2020/12/28 05:01:01;;;;;;;32.50;5.40;;;22.10;81.60;;;;;;4974091;28;20206;-72
2020/12/28 05:03:29;;;;;;;33.47;5.80;;;22.00;81.60;;;;;;4964037;28;20195;-71
2020/12/28 05:05:57;;;;;;;28.87;5.33;;;21.90;82.30;;;;;;4961619;28;20175;-70
2020/12/28 05:08:24;;;;;;;30.33;4.63;;;21.90;82.60;;;;;;4966353;28;20212;-71
2020/12/28 05:10:52;;;;;;;37.30;6.23;;;21.70;82.70;;;;;;4964943;28;20179;-70
2020/12/28 05:13:20;;;;;;;36.63;5.53;;;21.60;83.10;;;;;;4973630;28;20179;-72
2020/12/28 05:15:51;;;;;;;29.87;5.67;;;21.50;83.10;;;;;;4974150;28;20198;-70
2020/12/28 05:18:19;;;;;;;37.53;5.87;;;21.50;83.40;;;;;;4972993;28;20674;-71
2020/12/28 05:20:48;;;;;;;32.50;6.37;;;21.40;83.40;;;;;;4970953;28;20189;-68
2020/12/28 05:23:17;;;;;;;30.17;5.90;;;21.40;83.50;;;;;;4971615;28;20183;-68
2020/12/28 05:25:46;;;;;;;30.07;4.97;;;21.30;83.50;;;;;;4968470;28;20186;-70
2020/12/28 05:28:21;;;;;;;20.80;4.47;;;21.30;83.60;;;;;;4958849;28;20224;-70
2020/12/28 05:30:50;;;;;;;33.70;5.87;;;21.30;83.20;;;;;;4974009;28;20182;-68
2020/12/28 05:33:18;;;;;;;30.00;5.43;;;21.40;83.30;;;;;;4959628;28;20547;-70
2020/12/28 05:35:46;;;;;;;31.40;5.30;;;21.30;83.30;;;;;;4957045;28;20187;-70
2020/12/28 05:38:14;;;;;;;29.10;5.73;;;21.30;83.20;;;;;;4952833;29;20184;-70
2020/12/28 05:40:42;;;;;;;33.13;5.10;;;21.30;83.40;;;;;;4953343;28;20170;-70
2020/12/28 05:43:09;;;;;;;30.13;5.13;;;21.30;83.30;;;;;;4954797;28;20233;-70
2020/12/28 05:45:46;;;;;;;26.70;5.10;;;21.30;83.20;;;;;;4954629;28;20183;-70
2020/12/28 05:48:22;;;;;;;23.43;4.83;;;21.20;83.30;;;;;;4954872;28;20175;-70
2020/12/28 05:50:58;;;;;;;30.50;4.90;;;21.20;84.00;;;;;;4955432;28;20299;-70
2020/12/28 05:53:26;;;;;;;36.73;5.70;;;21.10;84.10;;;;;;4959795;28;20556;-71
2020/12/28 05:55:54;;;;;;;26.67;5.13;;;21.20;84.20;;;;;;4974311;28;20178;-71
2020/12/28 05:58:22;;;;;;;35.07;5.07;;;21.00;83.90;;;;;;4957065;28;20535;-71
2020/12/28 06:00:51;;;;;;;41.60;5.57;;;21.00;84.00;;;;;;4954730;28;20225;-71
2020/12/28 06:03:25;;;;;;;25.93;5.10;;;20.90;84.50;;;;;;4955088;28;20191;-72
2020/12/28 06:05:54;;;;;;;27.17;4.87;;;20.90;84.20;;;;;;4956665;28;20527;-71
2020/12/28 06:08:22;;;;;;;32.30;4.63;;;20.80;84.50;;;;;;4960049;28;20581;-71
2020/12/28 06:10:50;;;;;;;33.80;5.27;;;20.70;84.50;;;;;;4978493;28;20545;-70
2020/12/28 06:13:24;;;;;;;36.07;5.20;;;20.60;85.00;;;;;;4977459;28;20190;-70
2020/12/28 06:16:04;;;;;;;25.00;5.00;;;20.50;85.00;;;;;;4978520;28;20240;-69
2020/12/28 06:18:32;;;;;;;25.87;4.40;;;20.60;84.30;;;;;;4959132;28;20270;-70
2020/12/28 06:21:12;;;;;;;23.77;4.50;;;20.60;84.40;;;;;;4973151;28;20210;-70
2020/12/28 06:23:50;;;;;;;28.23;5.10;;;20.70;84.00;;;;;;4976638;28;20194;-70
2020/12/28 06:26:22;;;;;;;32.63;5.17;;;20.70;83.80;;;;;;4978069;28;20185;-71
2020/12/28 06:28:50;;;;;;;28.50;4.77;;;20.70;84.50;;;;;;4977232;28;20179;-70
2020/12/28 06:31:17;;;;;;;26.03;4.77;;;20.70;83.00;;;;;;4960836;28;20187;-72
2020/12/28 06:33:51;;;;;;;28.87;5.03;;;20.60;83.20;;;;;;4958997;29;20195;-72
2020/12/28 06:36:18;;;;;;;27.53;4.33;;;20.50;83.60;;;;;;4958394;28;20253;-71
2020/12/28 06:38:56;;;;;;;19.93;3.57;;;20.50;83.80;;;;;;4966630;28;20186;-71
2020/12/28 06:41:28;;;;;;;19.10;4.47;;;20.40;84.80;;;;;;4969821;28;20633;-71
2020/12/28 06:44:01;;;;;;;28.40;4.73;;;20.40;85.20;;;;;;4965508;28;20198;-70
2020/12/28 06:46:30;;;;;;;20.60;4.47;;;20.40;84.60;;;;;;4964029;28;20616;-71
2020/12/28 06:48:59;;;;;;;21.80;3.73;;;20.40;85.50;;;;;;4958411;28;20182;-71
2020/12/28 06:51:27;;;;;;;18.33;3.80;;;20.30;85.80;;;;;;4958100;28;20175;-72
2020/12/28 06:53:56;;;;;;;22.80;3.93;;;20.20;86.30;;;;;;4966913;28;20233;-71
2020/12/28 06:56:27;;;;;;;24.77;4.63;;;20.10;86.90;;;;;;4984896;28;20206;-70
2020/12/28 06:59:01;;;;;;;20.30;3.67;;;20.00;87.80;;;;;;4991392;28;21931;-71
2020/12/28 07:01:30;;;;;;;31.10;5.10;;;19.90;88.10;;;;;;4969809;28;20576;-71
2020/12/28 07:03:57;;;;;;;25.60;4.17;;;19.90;88.10;;;;;;4961456;28;20183;-70
2020/12/28 07:06:25;;;;;;;21.90;4.57;;;19.90;88.70;;;;;;4971137;28;20245;-71
2020/12/28 07:08:52;;;;;;;27.47;3.67;;;19.80;89.10;;;;;;4960565;28;20190;-70
2020/12/28 07:11:20;;;;;;;21.33;3.73;;;19.70;89.90;;;;;;4974917;28;20187;-70
2020/12/28 07:13:48;;;;;;;25.13;3.67;;;19.60;90.00;;;;;;4975045;28;20716;-71
2020/12/28 07:16:15;;;;;;;22.10;4.43;;;19.60;90.60;;;;;;4963653;28;20187;-71
2020/12/28 07:18:42;;;;;;;23.63;3.90;;;19.60;90.20;;;;;;4961413;28;20329;-69
2020/12/28 07:21:10;;;;;;;21.17;4.20;;;19.60;91.00;;;;;;4975886;28;20315;-69
2020/12/28 07:23:37;;;;;;;24.90;4.80;;;19.60;91.70;;;;;;4975036;28;20186;-71
2020/12/28 07:26:12;;;;;;;24.10;4.33;;;19.50;92.10;;;;;;4971687;28;20176;-70
2020/12/28 07:28:45;;;;;;;24.33;4.30;;;19.50;92.90;;;;;;4972644;28;20193;-68
2020/12/28 07:31:13;;;;;;;28.03;4.63;;;19.30;93.00;;;;;;4976151;28;20178;-69
2020/12/28 07:33:48;;;;;;;26.23;6.67;;;19.10;93.60;;;;;;4970415;28;20539;-68
2020/12/28 07:36:18;;;;;;;33.57;7.63;;;19.00;93.50;;;;;;4956922;28;20190;-69
2020/12/28 07:38:47;;;;;;;26.80;6.90;;;19.10;94.80;;;;;;4970830;28;20178;-69
2020/12/28 07:41:23;;;;;;;22.90;4.43;;;19.00;94.60;;;;;;4973995;28;20202;-70
2020/12/28 07:43:55;;;;;;;30.03;5.00;;;19.00;95.50;;;;;;4975149;28;20217;-70
2020/12/28 07:46:51;;;;;;;30.77;5.40;;;18.80;95.10;;;;;;4974534;28;20858;-69
2020/12/28 07:49:42;;;;;;;23.63;4.83;;;18.70;95.50;;;;;;4974469;28;20191;-69
2020/12/28 07:52:27;;;;;;;26.87;5.10;;;18.70;96.20;;;;;;4975605;28;20641;-70
2020/12/28 07:55:09;;;;;;;33.87;5.77;;;18.70;96.00;;;;;;4974675;28;20230;-70
2020/12/28 07:58:03;;;;;;;26.17;4.40;;;18.70;96.60;;;;;;4975506;28;20684;-68
2020/12/28 08:00:37;;;;;;;26.73;4.87;;;18.70;96.50;;;;;;4975759;28;20642;-70
2020/12/28 08:03:46;;;;;;;34.17;5.23;;;18.70;96.70;;;;;;4975710;28;20221;-71
2020/12/28 08:06:15;;;;;;;22.07;4.73;;;18.70;96.70;;;;;;4975120;28;20644;-70
2020/12/28 08:08:43;;;;;;;29.40;4.43;;;18.80;97.30;;;;;;4963279;28;20258;-69
2020/12/28 08:11:11;;;;;;;24.57;5.17;;;18.90;97.00;;;;;;4975573;28;20190;-69
2020/12/28 08:13:38;;;;;;;37.73;5.57;;;18.90;96.60;;;;;;4975403;28;20210;-69
2020/12/28 08:16:16;;;;;;;24.93;5.03;;;18.90;97.10;;;;;;4975650;28;20185;-69
2020/12/28 08:18:53;;;;;;;30.27;5.00;;;18.90;96.80;;;;;;4975304;28;20182;-70
2020/12/28 08:21:23;;;;;;;25.73;4.90;;;18.90;97.10;;;;;;4975338;28;20668;-70
2020/12/28 08:23:56;;;;;;;33.63;6.37;;;18.90;97.50;;;;;;4974747;28;20190;-69
2020/12/28 08:26:28;;;;;;;29.63;8.27;;;18.90;97.30;;;;;;4975379;28;20230;-68
2020/12/28 08:28:57;;;;;;;32.23;6.47;;;18.90;97.50;;;;;;4969509;28;20218;-68
2020/12/28 08:31:33;;;;;;;23.83;5.23;;;19.00;97.30;;;;;;4988355;28;20690;-70
2020/12/28 08:34:16;;;;;;;30.10;5.50;;;18.90;97.00;;;;;;4984872;28;20200;-70
2020/12/28 08:36:53;;;;;;;28.70;4.37;;;18.90;97.60;;;;;;4991514;28;20193;-70
2020/12/28 08:39:23;;;;;;;34.43;5.13;;;18.90;97.00;;;;;;4975161;28;20205;-69
2020/12/28 08:42:01;;;;;;;30.60;5.37;;;19.00;96.80;;;;;;4974865;28;20695;-69
2020/12/28 08:44:30;;;;;;;24.60;4.87;;;19.00;96.80;;;;;;4974138;28;20615;-69
2020/12/28 08:46:58;;;;;;;26.83;5.07;;;19.10;97.20;;;;;;4983796;28;20184;-69
2020/12/28 08:49:30;;;;;;;29.53;5.70;;;19.10;97.30;;;;;;4994274;28;20178;-69
2020/12/28 08:52:18;;;;;;;26.53;5.77;;;19.10;97.10;;;;;;4976588;28;20586;-68
2020/12/28 08:55:01;;;;;;;27.43;5.33;;;19.10;97.20;;;;;;4972906;28;20452;-68
2020/12/28 08:57:31;;;;;;;28.23;5.20;;;19.10;97.30;;;;;;4974447;28;20182;-68
2020/12/28 09:00:00;;;;;;;26.00;4.37;;;19.10;97.70;;;;;;4956880;28;20725;-69
2020/12/28 09:02:29;;;;;;;28.23;5.07;;;19.10;97.10;;;;;;4956824;28;20227;-68
2020/12/28 09:04:57;;;;;;;32.47;4.70;;;19.10;97.90;;;;;;4964058;28;20187;-67
2020/12/28 09:07:25;;;;;;;25.43;4.40;;;19.10;97.70;;;;;;4964656;28;20183;-68
2020/12/28 09:09:52;;;;;;;31.37;4.80;;;19.00;97.80;;;;;;4962496;28;20600;-68
2020/12/28 09:12:20;;;;;;;32.33;5.53;;;18.90;97.50;;;;;;4966427;28;20273;-69
2020/12/28 09:14:47;;;;;;;38.73;5.10;;;18.90;97.90;;;;;;4967113;28;20608;-68
2020/12/28 09:17:14;;;;;;;37.80;6.00;;;18.90;97.90;;;;;;4968332;28;20695;-69
2020/12/28 09:19:42;;;;;;;25.37;4.90;;;18.90;98.20;;;;;;4965078;28;20186;-68
2020/12/28 09:22:09;;;;;;;26.20;7.63;;;19.00;98.20;;;;;;4969609;28;21064;-70
2020/12/28 09:24:36;;;;;;;26.47;5.67;;;19.00;98.30;;;;;;4968213;28;20238;-67
2020/12/28 09:27:04;;;;;;;29.30;5.10;;;18.90;98.20;;;;;;4961314;28;20186;-67
2020/12/28 09:29:31;;;;;;;30.27;5.07;;;18.90;97.70;;;;;;4963618;28;20183;-67
2020/12/28 09:31:58;;;;;;;31.77;5.87;;;18.80;97.60;;;;;;4966439;28;20182;-67
2020/12/28 09:34:26;;;;;;;39.17;5.53;;;18.90;97.70;;;;;;4964762;28;20187;-68
2020/12/28 09:37:03;;;;;;;28.27;5.37;;;18.80;97.70;;;;;;4961176;28;20210;-68
2020/12/28 09:39:31;;;;;;;34.70;6.33;;;18.70;97.70;;;;;;4966428;28;20234;-67
2020/12/28 09:41:59;;;;;;;30.10;5.57;;;18.80;97.50;;;;;;4968196;28;20253;-68
2020/12/28 09:44:27;;;;;;;28.10;4.13;;;18.80;97.60;;;;;;4969295;28;20221;-69
2020/12/28 09:46:54;;;;;;;23.10;4.90;;;18.80;97.70;;;;;;4963929;28;20198;-70
2020/12/28 09:49:22;;;;;;;31.60;4.93;;;18.90;97.60;;;;;;4970979;28;20232;-68
2020/12/28 09:51:53;;;;;;;33.50;4.57;;;18.80;97.10;;;;;;4964529;28;20693;-67
2020/12/28 09:54:25;;;;;;;30.77;4.83;;;18.70;97.40;;;;;;4967940;28;20238;-69
2020/12/28 09:56:52;;;;;;;29.10;4.87;;;18.60;97.20;;;;;;4967185;28;20229;-69
2020/12/28 09:59:20;;;;;;;38.70;6.10;;;18.50;97.40;;;;;;4970631;28;20182;-70
2020/12/28 10:01:47;;;;;;;22.77;4.60;;;18.50;97.70;;;;;;4965881;28;20297;-69
2020/12/28 10:04:15;;;;;;;36.03;5.10;;;18.50;97.50;;;;;;4970773;28;20181;-70
2020/12/28 10:06:43;;;;;;;22.13;4.30;;;18.60;97.80;;;;;;4963143;28;20644;-70
2020/12/28 10:09:11;;;;;;;23.07;4.93;;;18.60;98.20;;;;;;4971202;28;20314;-70
2020/12/28 10:11:39;;;;;;;26.57;4.13;;;18.60;98.00;;;;;;4967170;28;20179;-70
2020/12/28 10:14:06;;;;;;;31.67;5.40;;;18.60;98.00;;;;;;4967691;28;20707;-69
2020/12/28 10:16:34;;;;;;;33.23;5.50;;;18.50;97.70;;;;;;4970389;28;20182;-70
2020/12/28 10:19:01;;;;;;;31.60;6.13;;;18.40;97.80;;;;;;4970048;28;20194;-70
2020/12/28 10:21:29;;;;;;;25.87;4.80;;;18.40;97.90;;;;;;4962968;28;20554;-69
2020/12/28 10:23:56;;;;;;;33.40;5.80;;;18.30;97.90;;;;;;4959468;28;20267;-70
2020/12/28 10:26:28;;;;;;;36.50;5.30;;;18.20;98.30;;;;;;4961891;28;20183;-71
2020/12/28 10:28:57;;;;;;;28.67;5.47;;;18.20;98.40;;;;;;4968278;28;20213;-71
2020/12/28 10:31:25;;;;;;;33.30;5.27;;;18.30;98.50;;;;;;4967225;28;20187;-71
2020/12/28 10:33:53;;;;;;;27.23;4.73;;;18.30;98.10;;;;;;4963679;28;20282;-72
2020/12/28 10:36:24;;;;;;;25.80;4.00;;;18.30;98.10;;;;;;4964801;28;20179;-70
2020/12/28 10:38:53;;;;;;;30.47;5.23;;;18.20;98.00;;;;;;4966337;28;20179;-69
2020/12/28 10:41:26;;;;;;;25.87;4.33;;;18.20;98.20;;;;;;4966523;28;20274;-70
2020/12/28 10:43:54;;;;;;;28.30;4.60;;;18.10;97.90;;;;;;4965688;28;20190;-71
2020/12/28 10:46:21;;;;;;;27.07;4.67;;;18.10;97.50;;;;;;4969642;28;20263;-70
2020/12/28 10:48:48;;;;;;;28.50;4.87;;;18.10;98.10;;;;;;4963843;28;20171;-70
2020/12/28 10:51:16;;;;;;;28.57;4.23;;;18.00;97.50;;;;;;4967408;28;20747;-71
2020/12/28 10:53:43;;;;;;;18.33;4.23;;;18.10;97.80;;;;;;4968338;28;20235;-71
2020/12/28 10:56:11;;;;;;;26.13;3.63;;;18.10;97.90;;;;;;4976064;28;20194;-70
2020/12/28 10:58:39;;;;;;;26.57;4.60;;;18.10;97.60;;;;;;4978221;28;20547;-71
2020/12/28 11:01:07;;;;;;;24.23;4.30;;;18.20;98.00;;;;;;4972368;28;20218;-72
2020/12/28 11:03:35;;;;;;;34.03;4.90;;;18.10;97.50;;;;;;4970769;28;20191;-71
2020/12/28 11:06:03;;;;;;;22.37;4.00;;;18.10;97.20;;;;;;4968797;28;20537;-71
2020/12/28 11:08:31;;;;;;;24.10;4.17;;;18.00;96.90;;;;;;4971272;28;20189;-70
2020/12/28 11:10:58;;;;;;;22.20;4.03;;;18.00;97.30;;;;;;4970529;28;20567;-70
2020/12/28 11:13:26;;;;;;;20.57;3.63;;;18.10;97.40;;;;;;4970624;28;20552;-71
2020/12/28 11:15:53;;;;;;;25.20;5.63;;;18.00;96.80;;;;;;4969994;28;20205;-72
2020/12/28 11:18:20;;;;;;;28.73;4.17;;;18.10;97.30;;;;;;4973210;28;20179;-71
2020/12/28 11:20:47;;;;;;;29.07;3.87;;;18.20;97.30;;;;;;4967754;28;20185;-71
2020/12/28 11:23:15;;;;;;;19.17;3.63;;;18.20;97.40;;;;;;4970068;28;20763;-68
2020/12/28 11:25:42;;;;;;;23.07;4.67;;;18.30;97.40;;;;;;4965973;28;20313;-68
2020/12/28 11:28:09;;;;;;;21.87;4.20;;;18.30;97.00;;;;;;4971387;28;20661;-69
2020/12/28 11:30:37;;;;;;;26.40;4.00;;;18.20;97.00;;;;;;4971444;28;20540;-68
2020/12/28 11:33:04;;;;;;;13.83;3.50;;;18.20;97.00;;;;;;4968449;28;20179;-69
2020/12/28 11:35:31;;;;;;;18.53;4.20;;;18.30;96.80;;;;;;4963975;28;20197;-69
2020/12/28 11:37:59;;;;;;;21.70;3.60;;;18.30;97.00;;;;;;4973119;28;20201;-69
2020/12/28 11:40:26;;;;;;;25.57;4.73;;;18.30;96.70;;;;;;4969759;28;20655;-69
2020/12/28 11:42:54;;;;;;;24.03;3.90;;;18.40;96.90;;;;;;4969052;28;20246;-70
2020/12/28 11:45:21;;;;;;;27.23;5.17;;;18.40;97.10;;;;;;4964118;28;20660;-68
2020/12/28 11:47:48;;;;;;;20.70;4.53;;;18.30;96.70;;;;;;4966243;28;20211;-70
2020/12/28 11:50:15;;;;;;;20.10;3.80;;;18.40;97.10;;;;;;4970699;28;20600;-68
2020/12/28 11:52:43;;;;;;;17.83;4.23;;;18.30;97.00;;;;;;4967087;28;20225;-71
2020/12/28 11:55:10;;;;;;;24.13;4.73;;;18.30;97.00;;;;;;4969287;28;20195;-69
2020/12/28 11:57:37;;;;;;;25.70;5.80;;;18.20;96.70;;;;;;4970305;28;20201;-69
2020/12/28 12:00:05;;;;;;;21.27;4.70;;;18.20;97.00;;;;;;4967941;28;20218;-68
2020/12/28 12:02:32;;;;;;;19.57;5.33;;;18.20;96.90;;;;;;4968945;28;20588;-69
2020/12/28 12:04:59;;;;;;;24.63;4.80;;;18.20;97.30;;;;;;4968631;28;20198;-69
2020/12/28 12:07:27;;;;;;;24.57;5.00;;;18.10;97.10;;;;;;4970330;28;20740;-70
2020/12/28 12:09:54;;;;;;;18.63;4.17;;;18.10;96.90;;;;;;4973381;28;20194;-69
2020/12/28 12:12:22;;;;;;;14.60;3.57;;;18.00;96.40;;;;;;4972544;28;20190;-68
2020/12/28 12:14:49;;;;;;;20.40;3.73;;;18.00;96.70;;;;;;4965620;28;20183;-70
2020/12/28 12:17:16;;;;;;;21.10;3.83;;;18.10;96.80;;;;;;4967779;28;20213;-70
2020/12/28 12:19:43;;;;;;;23.77;4.83;;;18.10;96.90;;;;;;4963285;28;20207;-70
2020/12/28 12:22:11;;;;;;;19.33;4.17;;;18.10;97.00;;;;;;4968651;28;20247;-69
2020/12/28 12:24:38;;;;;;;21.40;4.57;;;18.10;96.80;;;;;;4972021;28;20186;-71
2020/12/28 12:27:05;;;;;;;21.67;3.97;;;18.20;97.10;;;;;;4972425;28;20186;-71
2020/12/28 12:29:33;;;;;;;19.97;4.07;;;18.20;96.50;;;;;;4994860;28;20514;-70
2020/12/28 12:32:00;;;;;;;13.77;4.23;;;18.10;96.40;;;;;;4984440;28;20194;-70
2020/12/28 12:34:27;;;;;;;17.63;3.97;;;18.10;96.40;;;;;;4958982;28;20183;-71
2020/12/28 12:36:55;;;;;;;18.70;4.07;;;18.10;96.50;;;;;;4960403;28;20221;-71
2020/12/28 12:39:22;;;;;;;17.53;3.57;;;18.10;96.50;;;;;;4955422;29;20547;-70
2020/12/28 12:41:49;;;;;;;18.40;3.97;;;18.00;96.50;;;;;;4954268;28;20210;-71
2020/12/28 12:44:17;;;;;;;19.27;3.70;;;18.00;96.30;;;;;;4983764;28;20272;-71